x

Port Stanley (45132) Wave Buoy

7:00pm - Sun 28th Aug 2016 All times are CDT. -5 hours from GMT.

  • Sig Wave height 0.7ft
  • Peak Period 3s
  • Wind
    4mph, 7mph gusts
  • Sea Temp 78°f
  • Air Temp 77°f
  • Sea Pressure 1020.9mb
  • Port Stanley
  • Port Stanley

More Historic Weather Station data

Upgrade to MSW Pro to gain access to the past 30 days of data for over 8000 Wavebouys and Weather Stations around the globe.

Join Pro

Comparision Forecast

View Surf forecast
   
Sun 08/28 7:00pm 0.7ft 3s 4 7 mph 1020.9mb 78f 77f
6:00pm 1ft 3s 11
mph
1020.3mb 78f 77f
5:00pm 1.3ft 3s 11 13 mph 1019.7mb 78f 77f
4:00pm 1ft 3s 11 13 mph 1020.4mb 78f 78f
3:00pm 1ft 3s 13
mph
1021.2mb 78f 77f
2:00pm 1ft 3s 11 13 mph 1021.4mb 78f 77f
1:00pm 0.7ft 3s 11 13 mph 1021.7mb 79f 78f
12:00pm 1ft 2s 11 13 mph 1021.9mb 78f 77f
11:00am 0.7ft 3s 11 13 mph 1021.8mb 78f 77f
10:00am 0.3ft 2s 11 13 mph 1021.7mb 78f 77f
9:00am 0.3ft 3s 11
mph
1021.6mb 78f 76f
8:00am 0.3ft 3s 7 9 mph 1021.7mb 77f 75f
7:00am 0.3ft 4s 4
mph
1021.1mb 77f 75f
6:00am 0.7ft 3s 4 7 mph 1021.2mb 77f 75f
5:00am 0.7ft 4s 4 7 mph 1020.7mb 77f 75f
4:00am 0.7ft 4s 9
mph
1020.2mb 77f 75f
3:00am 1ft 4s 2 4 mph 1019.7mb 77f 75f
2:00am 1ft 4s 2 4 mph 1019.3mb 77f 75f
1:00am 1ft 4s 4
mph
1019.3mb 77f 75f
12:00am 1ft 4s 4 7 mph 1019.5mb 77f 76f
Sat 08/27 11:00pm 1ft 4s 9
mph
1019.3mb 77f 76f
10:00pm 1ft 4s 9
mph
1019.5mb 77f 76f
9:00pm 1ft 4s 11 13 mph 1019.3mb 77f 76f
8:00pm 1ft 4s 11 13 mph 1019.4mb 77f 76f
7:00pm 1ft 4s 7 9 mph 1019.6mb 77f 75f
6:00pm 1ft 4s 7
mph
1020.2mb 77f 74f
5:00pm 1.3ft 4s 11 25 mph 1020.4mb 78f 78f
4:00pm 1.3ft 4s 13 16 mph 1019.9mb 78f 77f
3:00pm 1.6ft 4s 11 13 mph 1020mb 78f 76f
2:00pm 2ft 4s 13 16 mph 1019.6mb 78f 76f
1:00pm 2ft 4s 13 16 mph 1020mb 78f 76f
12:00pm 2ft 4s 16 18 mph 1020.5mb 78f 76f
11:00am 2ft 4s 13 16 mph 1021.3mb 77f 76f
10:00am 1.6ft 4s 16 18 mph 1021.5mb 77f 76f
9:00am 1.6ft 4s 16 18 mph 1021.7mb 77f 75f
8:00am 1.6ft 3s 16 18 mph 1021.6mb 77f 76f
7:00am 1.6ft 3s 16 18 mph 1021.6mb 77f 76f
6:00am 1ft 3s 16 18 mph 1021.8mb 77f 75f
5:00am 0.7ft 2s 13 16 mph 1021.5mb 77f 75f
4:00am 0.3ft 2s 11 13 mph 1021.4mb 77f 74f
3:00am 0.3ft 2s 9 11 mph 1021.1mb 77f 74f
2:00am 0.3ft 3s 7 9 mph 1020.9mb 77f 74f
1:00am 0.3ft 3s 7 9 mph 1020.7mb 77f 74f
12:00am 0.7ft 3s 7 9 mph 1020.9mb 77f 75f
Fri 08/26 11:00pm 0.7ft 3s 7 9 mph 1020.9mb 78f 76f
10:00pm 0.7ft 3s 9 11 mph 1020.9mb 78f 76f
9:00pm 1ft 3s 9
mph
1020.4mb 78f 76f
8:00pm 1.3ft 3s 11 13 mph 1020.1mb 78f 76f
7:00pm 1ft 3s 11 13 mph 1019.5mb 78f 76f
6:00pm 1ft 3s 11 13 mph 1019.5mb 78f 76f
5:00pm 1ft 2s 13 16 mph 1019.5mb 78f 76f
4:00pm 0.7ft 2s 13 16 mph 1019.5mb 79f 76f
3:00pm 0.3ft 2s 11 13 mph 1019.6mb 79f 76f
2:00pm 0.3ft 2s 9 11 mph 1019.8mb 78f 76f
1:00pm 0.3ft 2s 9
mph
1020.1mb 78f 75f
12:00pm 0.7ft 2s 7 9 mph 1020.3mb 78f 75f
11:00am 0.7ft 2s 7 9 mph 1020.2mb 78f 74f
10:00am 0.7ft 3s 9
mph
1020.4mb 77f 73f
9:00am 0.7ft 3s 11
mph
1019.9mb 77f 72f
8:00am 1ft 3s 9 11 mph 1019.4mb 77f 72f
7:00am 1.3ft 3s 11 13 mph 1018.8mb 77f 71f
6:00am 1.3ft 3s 13 16 mph 1018.2mb 77f 71f
5:00am 1.3ft 3s 18 20 mph 1017.3mb 77f 72f
4:00am 1.3ft 3s 18 20 mph 1016.9mb 77f 72f
3:00am 1.3ft 3s 18 20 mph 1016.6mb 77f 74f
2:00am 1ft 2s 18 20 mph 1016.2mb 77f 75f
1:00am 0.7ft 2s 16 18 mph 1015.8mb 77f 77f
12:00am 0.7ft 4s 9 11 mph 1015.4mb 77f 76f
Thu 08/25 11:00pm 0.7ft 3s 9 11 mph 1015.1mb 77f 76f
10:00pm 1ft 3s 11 13 mph 1014.9mb 77f 77f
9:00pm 1ft 3s 11 13 mph 1014.5mb 77f 76f
8:00pm 1.3ft 4s 9 11 mph 1014.3mb 77f 76f
7:00pm 1.6ft 4s 11 13 mph 1014.1mb 77f 76f
6:00pm 2ft 4s 16 18 mph 1013.9mb 77f 77f
5:00pm 2ft 4s 18 20 mph 1012.6mb 77f 79f
4:00pm 2.5ft 4s 16 18 mph 1012.9mb 77f 79f
3:00pm 2.5ft 4s 16 18 mph 1013.4mb 77f 78f
2:00pm 2.5ft 4s 18 20 mph 1014.1mb 77f 77f
1:00pm 2.5ft 4s 18 22 mph 1014.4mb 77f 77f
12:00pm 1.6ft 5s 18 20 mph 1015mb 77f 77f
11:00am 1.6ft 5s 16 20 mph 1015.4mb 77f 76f
10:00am 2ft 5s 7 9 mph 1014.9mb 77f 75f
9:00am 2ft 5s 9 11 mph 1015.1mb 77f 76f
8:00am 2ft 5s 11 13 mph 1015.1mb 77f 75f
7:00am 2.5ft 5s 13 16 mph 1014.5mb 77f 75f
6:00am 2.5ft 6s 16 20 mph 1014.2mb 77f 75f
5:00am 2.5ft 5s 16 20 mph 1013.9mb 77f 76f
4:00am 2.5ft 5s 16 18 mph 1013.3mb 77f 76f
3:00am 3ft 5s 13 16 mph 1012.8mb 76f 76f
2:00am 3.5ft 5s 16 20 mph 1012.8mb 76f 76f